createdAt,value
2022-10-02T00:02:02.263Z,10.60
2022-10-02T00:04:35.893Z,4.97
2022-10-02T00:09:42.406Z,5.68
2022-10-02T00:12:13.227Z,10.27
2022-10-02T00:14:44.046Z,7.57
2022-10-02T00:17:19.886Z,6.63
2022-10-02T00:19:48.214Z,7.45
2022-10-02T00:22:30.929Z,7.10
2022-10-02T00:25:05.271Z,6.88
2022-10-02T00:27:53.464Z,8.20
2022-10-02T00:30:21.912Z,6.90
2022-10-02T00:33:05.299Z,8.98
2022-10-02T00:36:01.755Z,9.85
2022-10-02T00:38:46.100Z,10.68
2022-10-02T00:41:45.382Z,7.15
2022-10-02T00:44:35.804Z,11.95
2022-10-02T00:47:11.007Z,9.65
2022-10-02T00:49:57.403Z,8.75
2022-10-02T00:52:46.154Z,6.88
2022-10-02T00:55:41.143Z,8.18
2022-10-02T00:58:28.920Z,7.40
2022-10-02T01:01:04.769Z,8.63
2022-10-02T01:03:39.232Z,6.47
2022-10-02T01:06:09.132Z,6.68
2022-10-02T01:08:38.179Z,6.97
2022-10-02T01:11:09.136Z,10.52
2022-10-02T01:13:37.691Z,6.38
2022-10-02T01:16:11.751Z,9.32
2022-10-02T01:18:40.378Z,13.68
2022-10-02T01:21:14.799Z,7.30
2022-10-02T01:23:50.118Z,8.30
2022-10-02T01:26:20.318Z,9.50
2022-10-02T01:28:49.427Z,6.22
2022-10-02T01:31:19.260Z,10.65
2022-10-02T01:33:49.977Z,8.63
2022-10-02T01:36:19.256Z,8.82
2022-10-02T01:38:49.919Z,8.18
2022-10-02T01:41:19.720Z,8.20
2022-10-02T01:43:50.748Z,8.63
2022-10-02T01:46:31.587Z,7.38
2022-10-02T01:49:13.979Z,8.20
2022-10-02T01:52:08.784Z,11.82
2022-10-02T01:54:50.454Z,9.23
2022-10-02T01:57:31.792Z,10.13
2022-10-02T02:00:09.256Z,9.35
2022-10-02T02:02:49.187Z,8.65
2022-10-02T02:05:27.955Z,7.13
2022-10-02T02:08:08.156Z,9.27
2022-10-02T02:10:45.010Z,7.03
2022-10-02T02:13:21.669Z,8.57
2022-10-02T02:16:00.365Z,11.32
2022-10-02T02:18:34.870Z,6.47
2022-10-02T02:21:09.623Z,8.65
2022-10-02T02:23:40.547Z,6.38
2022-10-02T02:26:13.526Z,6.60
2022-10-02T02:28:49.505Z,8.13
2022-10-02T02:31:22.657Z,9.82
2022-10-02T02:33:58.360Z,8.50
2022-10-02T02:36:32.431Z,12.60
2022-10-02T02:39:06.751Z,8.32
2022-10-02T02:41:41.786Z,10.15
2022-10-02T02:44:20.239Z,9.57
2022-10-02T02:47:06.576Z,11.63
2022-10-02T02:49:52.484Z,8.32
2022-10-02T02:52:24.718Z,10.13
2022-10-02T02:54:57.679Z,9.35
2022-10-02T02:57:32.182Z,7.85
2022-10-02T03:00:04.262Z,10.23
2022-10-02T03:02:32.856Z,9.00
2022-10-02T03:05:01.327Z,12.52
2022-10-02T03:07:29.839Z,9.07
2022-10-02T03:10:07.532Z,11.27
2022-10-02T03:12:50.666Z,10.93
2022-10-02T03:15:30.099Z,8.93
2022-10-02T03:18:20.675Z,10.07
2022-10-02T03:21:01.373Z,9.13
2022-10-02T03:23:35.843Z,8.95
2022-10-02T03:26:09.883Z,8.27
2022-10-02T03:28:56.862Z,6.75
2022-10-02T03:31:31.141Z,11.27
2022-10-02T03:34:01.971Z,6.78
2022-10-02T03:36:31.410Z,9.63
2022-10-02T03:39:24.080Z,8.95
2022-10-02T03:41:52.397Z,4.82
2022-10-02T03:44:20.814Z,8.02
2022-10-02T03:46:50.645Z,5.88
2022-10-02T03:49:19.043Z,6.25
2022-10-02T03:51:49.089Z,5.97
2022-10-02T03:54:19.547Z,10.07
2022-10-02T03:56:55.836Z,6.28
2022-10-02T03:59:34.966Z,8.52
2022-10-02T04:02:10.501Z,7.78
2022-10-02T04:04:47.608Z,6.75
2022-10-02T04:07:21.155Z,6.43
2022-10-02T04:09:56.330Z,6.40
2022-10-02T04:12:31.419Z,7.22
2022-10-02T04:15:05.278Z,5.50
2022-10-02T04:17:44.388Z,7.18
2022-10-02T04:20:18.470Z,5.45
2022-10-02T04:22:52.143Z,6.93
2022-10-02T04:27:54.189Z,6.45
2022-10-02T04:30:23.522Z,10.50
2022-10-02T04:32:53.573Z,7.57
2022-10-02T04:35:30.173Z,7.60
2022-10-02T04:38:16.822Z,10.15
2022-10-02T04:40:57.004Z,8.88
2022-10-02T04:43:42.306Z,9.55
2022-10-02T04:46:24.522Z,6.05
2022-10-02T04:49:27.936Z,7.30
2022-10-02T04:52:08.363Z,10.40
2022-10-02T04:55:04.387Z,10.68
2022-10-02T04:57:49.447Z,7.45
2022-10-02T05:00:21.502Z,11.38
2022-10-02T05:03:08.247Z,11.15
2022-10-02T05:06:02.767Z,10.00
2022-10-02T05:08:58.811Z,9.18
2022-10-02T05:11:42.038Z,11.27
2022-10-02T05:14:28.126Z,12.65
2022-10-02T05:17:08.753Z,9.82
2022-10-02T05:19:52.216Z,7.32
2022-10-02T05:22:46.422Z,9.80
2022-10-02T05:25:46.241Z,7.15
2022-10-02T05:28:40.511Z,9.18
2022-10-02T05:34:00.854Z,7.13
2022-10-02T05:36:53.150Z,7.05
2022-10-02T05:39:28.409Z,8.32
2022-10-02T05:42:05.586Z,5.80
2022-10-02T05:44:39.480Z,8.57
2022-10-02T05:47:14.025Z,8.48
2022-10-02T05:49:49.475Z,8.40
2022-10-02T05:52:21.932Z,10.77
2022-10-02T05:54:58.137Z,4.60
2022-10-02T05:57:32.350Z,5.45
2022-10-02T06:00:09.734Z,5.00
2022-10-02T06:02:46.711Z,4.63
2022-10-02T06:05:20.712Z,5.22
2022-10-02T06:07:53.611Z,4.55
2022-10-02T06:10:29.130Z,5.27
2022-10-02T06:13:01.439Z,4.93
2022-10-02T06:15:34.411Z,4.60
2022-10-02T06:18:08.558Z,6.20
2022-10-02T06:20:41.971Z,3.88
2022-10-02T06:23:16.412Z,1.50
2022-10-02T06:25:50.058Z,2.05
2022-10-02T06:28:24.168Z,2.90
2022-10-02T06:31:00.836Z,2.17
2022-10-02T06:33:33.481Z,6.40
2022-10-02T06:36:30.261Z,6.00
2022-10-02T06:39:26.734Z,3.47
2022-10-02T06:42:09.966Z,4.78
2022-10-02T06:44:47.842Z,4.40
2022-10-02T06:47:35.078Z,5.57
2022-10-02T06:50:38.730Z,4.60
2022-10-02T06:53:20.078Z,6.50
2022-10-02T06:55:59.655Z,7.07
2022-10-02T06:58:43.822Z,7.07
2022-10-02T07:01:31.678Z,7.57
2022-10-02T07:04:18.178Z,6.82
2022-10-02T07:07:07.736Z,6.68
2022-10-02T07:09:54.239Z,7.28
2022-10-02T07:12:36.488Z,9.10
2022-10-02T07:15:25.293Z,8.10
2022-10-02T07:18:03.998Z,6.18
2022-10-02T07:20:44.696Z,6.43
2022-10-02T07:24:02.197Z,7.88
2022-10-02T07:26:50.914Z,7.10
2022-10-02T07:29:32.678Z,7.10
2022-10-02T07:32:36.686Z,9.05
2022-10-02T07:35:17.505Z,8.00
2022-10-02T07:37:59.843Z,7.05
2022-10-02T07:40:36.602Z,8.25
2022-10-02T07:43:24.390Z,6.25
2022-10-02T07:46:00.479Z,12.45
2022-10-02T07:48:42.846Z,7.10
2022-10-02T07:51:40.075Z,10.65
2022-10-02T07:54:40.688Z,9.13
2022-10-02T07:57:26.589Z,10.40
2022-10-02T07:59:59.466Z,10.48
2022-10-02T08:02:34.416Z,9.10
2022-10-02T08:05:07.713Z,7.90
2022-10-02T08:07:36.947Z,11.50
2022-10-02T08:10:11.603Z,6.55
2022-10-02T08:12:45.486Z,12.00
2022-10-02T08:15:17.937Z,6.28
2022-10-02T08:17:51.386Z,10.05
2022-10-02T08:20:29.483Z,9.85
2022-10-02T08:23:05.260Z,6.18
2022-10-02T08:25:39.133Z,5.22
2022-10-02T08:28:13.842Z,7.93
2022-10-02T08:30:42.320Z,6.70
2022-10-02T08:33:17.670Z,4.95
2022-10-02T08:35:58.332Z,6.15
2022-10-02T08:38:38.780Z,4.90
2022-10-02T08:42:01.386Z,5.00
2022-10-02T08:45:15.480Z,3.80
2022-10-02T08:48:15.659Z,5.78
2022-10-02T08:51:17.903Z,3.92
2022-10-02T08:54:42.158Z,3.38
2022-10-02T08:57:46.080Z,2.90
2022-10-02T09:00:22.364Z,3.72
2022-10-02T09:03:47.207Z,2.35
2022-10-02T09:06:45.610Z,1.45
2022-10-02T09:09:49.896Z,1.42
2022-10-02T09:12:46.191Z,2.97
2022-10-02T09:15:17.907Z,1.13
2022-10-02T09:17:49.799Z,3.53
2022-10-02T09:20:44.054Z,1.05
2022-10-02T09:25:59.339Z,0.63
2022-10-02T09:29:15.147Z,0.37
2022-10-02T09:32:21.952Z,1.50
2022-10-02T09:35:18.402Z,1.67
2022-10-02T09:38:30.242Z,1.13
2022-10-02T09:41:38.604Z,1.55
2022-10-02T09:45:00.975Z,1.02
2022-10-02T09:48:17.110Z,2.10
2022-10-02T09:51:10.530Z,1.35
2022-10-02T09:54:21.732Z,3.87
2022-10-02T09:57:18.863Z,2.58
2022-10-02T10:00:05.536Z,3.38
2022-10-02T10:03:12.022Z,4.32
2022-10-02T10:06:30.543Z,3.30
2022-10-02T10:09:35.670Z,3.95
2022-10-02T10:12:23.917Z,3.72
2022-10-02T10:15:36.443Z,3.95
2022-10-02T10:18:50.349Z,5.25
2022-10-02T10:21:55.050Z,4.15
2022-10-02T10:24:56.875Z,4.28
2022-10-02T10:27:57.390Z,8.32
2022-10-02T10:30:57.500Z,4.90
2022-10-02T10:33:56.622Z,5.05
2022-10-02T10:37:13.251Z,3.60
2022-10-02T10:40:27.487Z,6.53
2022-10-02T10:43:36.556Z,5.07
2022-10-02T10:46:23.982Z,3.15
2022-10-02T10:49:32.350Z,3.83
2022-10-02T10:52:11.692Z,3.20
2022-10-02T10:55:04.116Z,2.58
2022-10-02T10:57:51.500Z,3.38
2022-10-02T11:00:22.368Z,3.10
2022-10-02T11:03:09.764Z,2.38
2022-10-02T11:06:04.446Z,3.90
2022-10-02T11:09:16.733Z,2.92
2022-10-02T11:11:58.888Z,2.00
2022-10-02T11:14:41.763Z,5.35
2022-10-02T11:17:26.652Z,4.13
2022-10-02T11:20:11.783Z,3.22
2022-10-02T11:23:12.559Z,2.70
2022-10-02T11:26:16.800Z,3.53
2022-10-02T11:29:17.471Z,6.03
2022-10-02T11:32:12.685Z,2.42
2022-10-02T11:34:58.788Z,3.72
2022-10-02T11:37:48.255Z,4.88
2022-10-02T11:40:35.370Z,3.65
2022-10-02T11:43:25.860Z,4.00
2022-10-02T11:46:23.503Z,3.70
2022-10-02T11:49:26.911Z,2.30
2022-10-02T11:52:32.395Z,3.55
2022-10-02T11:55:10.033Z,4.60
2022-10-02T11:57:51.798Z,5.45
2022-10-02T12:00:55.805Z,4.22
2022-10-02T12:03:32.286Z,3.15
2022-10-02T12:06:08.342Z,3.60
2022-10-02T12:08:51.403Z,3.08
2022-10-02T12:11:32.626Z,4.93
2022-10-02T12:14:11.088Z,5.60
2022-10-02T12:16:53.848Z,3.40
2022-10-02T12:20:01.697Z,3.67
2022-10-02T12:22:57.727Z,5.00
2022-10-02T12:25:52.163Z,6.05
2022-10-02T12:28:28.177Z,6.07
2022-10-02T12:31:03.245Z,5.63
2022-10-02T12:33:44.220Z,4.07
2022-10-02T12:36:37.062Z,3.97
2022-10-02T12:39:18.813Z,6.93
2022-10-02T12:42:20.928Z,5.57
2022-10-02T12:45:22.976Z,5.55
2022-10-02T12:48:08.417Z,3.67
2022-10-02T12:51:06.101Z,4.50
2022-10-02T12:54:10.429Z,4.90
2022-10-02T12:57:38.941Z,4.63
2022-10-02T13:00:15.850Z,3.63
2022-10-02T13:03:17.436Z,4.95
2022-10-02T13:05:55.499Z,4.50
2022-10-02T13:08:32.514Z,5.10
2022-10-02T13:11:10.602Z,4.40
2022-10-02T13:13:56.683Z,5.40
2022-10-02T13:16:30.384Z,5.53
2022-10-02T13:21:42.784Z,6.32
2022-10-02T13:24:25.525Z,4.43
2022-10-02T13:27:04.451Z,3.10
2022-10-02T13:30:02.711Z,3.55
2022-10-02T13:32:52.396Z,4.38
2022-10-02T13:35:46.061Z,4.63
2022-10-02T13:38:47.584Z,3.22
2022-10-02T13:41:28.404Z,2.65
2022-10-02T13:44:12.449Z,3.47
2022-10-02T13:49:27.169Z,4.13
2022-10-02T13:52:04.007Z,2.83
2022-10-02T13:54:42.692Z,4.40
2022-10-02T13:57:23.490Z,4.38
2022-10-02T14:00:03.921Z,4.35
2022-10-02T14:02:48.860Z,4.45
2022-10-02T14:05:32.534Z,3.30
2022-10-02T14:08:19.261Z,3.53
2022-10-02T14:11:02.135Z,5.32
2022-10-02T14:13:43.563Z,3.92
2022-10-02T14:16:25.996Z,5.53
2022-10-02T14:19:13.394Z,3.85
2022-10-02T14:21:54.298Z,4.35
2022-10-02T14:25:04.396Z,4.93
2022-10-02T14:28:14.140Z,3.08
2022-10-02T14:31:06.339Z,5.13
2022-10-02T14:33:59.082Z,3.40
2022-10-02T14:36:32.267Z,4.35
2022-10-02T14:39:20.648Z,6.50
2022-10-02T14:42:09.982Z,4.03
2022-10-02T14:45:13.887Z,4.07
2022-10-02T14:48:05.469Z,5.38
2022-10-02T14:50:47.463Z,4.95
2022-10-02T14:53:31.335Z,6.40
2022-10-02T14:56:42.094Z,4.38
2022-10-02T14:59:24.343Z,8.18
2022-10-02T15:02:11.712Z,10.07
2022-10-02T15:04:52.972Z,5.60
2022-10-02T15:07:24.307Z,6.13
2022-10-02T15:10:08.751Z,7.90
2022-10-02T15:12:49.003Z,6.35
2022-10-02T15:15:22.506Z,6.03
2022-10-02T15:18:09.991Z,3.58
2022-10-02T15:20:48.972Z,5.28
2022-10-02T15:23:41.303Z,3.65
2022-10-02T15:26:32.479Z,4.78
2022-10-02T15:29:15.796Z,3.70
2022-10-02T15:32:06.965Z,3.50
2022-10-02T15:34:46.697Z,5.63
2022-10-02T15:37:25.238Z,3.55
2022-10-02T15:40:07.056Z,6.80
2022-10-02T15:42:50.098Z,4.85
2022-10-02T15:45:49.656Z,6.38
2022-10-02T15:48:36.361Z,7.25
2022-10-02T15:51:18.646Z,3.15
2022-10-02T15:54:03.778Z,3.85
2022-10-02T15:57:08.141Z,4.18
2022-10-02T15:59:59.788Z,4.82
2022-10-02T16:02:40.294Z,5.53
2022-10-02T16:05:29.574Z,5.88
2022-10-02T16:08:21.986Z,7.43
2022-10-02T16:11:10.574Z,5.70
2022-10-02T16:13:50.115Z,5.22
2022-10-02T16:16:34.597Z,6.25
2022-10-02T16:19:14.708Z,4.88
2022-10-02T16:22:02.100Z,6.65
2022-10-02T16:24:49.388Z,5.55
2022-10-02T16:27:32.956Z,11.55
2022-10-02T16:30:13.349Z,7.07
2022-10-02T16:33:00.874Z,13.30
2022-10-02T16:36:10.767Z,13.07
2022-10-02T16:38:49.091Z,8.45
2022-10-02T16:41:37.040Z,11.90
2022-10-02T16:44:24.703Z,15.90
2022-10-02T16:46:56.708Z,9.98
2022-10-02T16:49:35.011Z,6.25
2022-10-02T16:52:12.135Z,15.25
2022-10-02T16:54:48.190Z,5.95
2022-10-02T16:57:25.200Z,7.00
2022-10-02T17:00:01.998Z,6.90
2022-10-02T17:02:43.606Z,5.15
2022-10-02T17:05:26.150Z,7.22
2022-10-02T17:08:00.671Z,10.30
2022-10-02T17:10:42.695Z,8.18
2022-10-02T17:13:30.533Z,6.03
2022-10-02T17:16:07.652Z,6.57
2022-10-02T17:18:43.828Z,7.78
2022-10-02T17:21:18.768Z,4.60
2022-10-02T17:24:00.244Z,4.88
2022-10-02T17:26:35.115Z,6.38
2022-10-02T17:29:12.568Z,9.48
2022-10-02T17:31:51.998Z,9.48
2022-10-02T17:34:24.166Z,9.75
2022-10-02T17:37:27.690Z,6.35
2022-10-02T17:40:08.909Z,7.78
2022-10-02T17:42:52.079Z,9.10
2022-10-02T17:45:31.942Z,6.90
2022-10-02T17:48:22.915Z,8.55
2022-10-02T17:51:50.869Z,8.13
2022-10-02T17:54:42.604Z,8.85
2022-10-02T17:57:27.553Z,7.18
2022-10-02T18:00:05.801Z,11.50
2022-10-02T18:02:52.319Z,7.93
2022-10-02T18:05:31.233Z,8.13
2022-10-02T18:08:14.317Z,5.20
2022-10-02T18:10:55.751Z,8.43
2022-10-02T18:13:36.439Z,8.20
2022-10-02T18:16:27.875Z,5.43
2022-10-02T18:19:24.026Z,6.85
2022-10-02T18:22:16.033Z,6.43
2022-10-02T18:25:25.274Z,9.73
2022-10-02T18:28:27.105Z,7.03
2022-10-02T18:31:08.730Z,9.18
2022-10-02T18:34:03.151Z,6.80
2022-10-02T18:36:41.462Z,6.72
2022-10-02T18:39:20.390Z,7.38
2022-10-02T18:41:57.315Z,6.43
2022-10-02T18:44:53.421Z,9.65
2022-10-02T18:47:34.462Z,6.40
2022-10-02T18:50:22.904Z,9.05
2022-10-02T18:53:01.666Z,7.85
2022-10-02T18:55:44.051Z,6.50
2022-10-02T18:58:28.006Z,8.88
2022-10-02T19:01:23.064Z,8.00
2022-10-02T19:04:10.265Z,10.95
2022-10-02T19:06:50.131Z,7.13
2022-10-02T19:09:26.094Z,7.35
2022-10-02T19:12:01.294Z,7.00
2022-10-02T19:14:41.352Z,7.53
2022-10-02T19:17:15.767Z,8.00
2022-10-02T19:19:44.863Z,4.70
2022-10-02T19:22:19.860Z,7.35
2022-10-02T19:24:51.009Z,9.07
2022-10-02T19:27:25.533Z,8.57
2022-10-02T19:29:57.921Z,5.63
2022-10-02T19:32:30.438Z,7.35
2022-10-02T19:35:04.003Z,6.47
2022-10-02T19:37:33.859Z,8.43
2022-10-02T19:40:08.960Z,9.90
2022-10-02T19:42:56.199Z,6.47
2022-10-02T19:45:27.618Z,7.70
2022-10-02T19:47:59.912Z,6.45
2022-10-02T19:50:39.944Z,6.38
2022-10-02T19:53:17.954Z,7.30
2022-10-02T19:55:50.599Z,6.60
2022-10-02T19:58:22.134Z,5.63
2022-10-02T20:00:51.909Z,6.43
2022-10-02T20:03:23.151Z,7.50
2022-10-02T20:05:55.457Z,6.60
2022-10-02T20:08:27.240Z,8.02
2022-10-02T20:11:03.251Z,6.90
2022-10-02T20:13:37.517Z,6.30
2022-10-02T20:16:31.648Z,9.63
2022-10-02T20:19:02.323Z,10.88
2022-10-02T20:21:37.880Z,6.75
2022-10-02T20:24:11.804Z,6.22
2022-10-02T20:29:17.582Z,6.65
2022-10-02T20:31:51.603Z,4.90
2022-10-02T20:34:29.124Z,8.65
2022-10-02T20:37:04.172Z,6.30
2022-10-02T20:39:38.208Z,10.48
2022-10-02T20:42:14.815Z,7.25
2022-10-02T20:44:43.459Z,7.28
2022-10-02T20:47:54.759Z,8.90
2022-10-02T20:50:52.211Z,9.73
2022-10-02T20:54:05.174Z,7.00
2022-10-02T20:57:14.437Z,8.77
2022-10-02T21:00:17.092Z,8.32
2022-10-02T21:03:26.641Z,6.53
2022-10-02T21:06:39.236Z,6.85
2022-10-02T21:09:44.934Z,6.95
2022-10-02T21:12:49.767Z,7.25
2022-10-02T21:15:53.917Z,6.88
2022-10-02T21:18:48.673Z,5.40
2022-10-02T21:21:37.655Z,7.10
2022-10-02T21:24:36.949Z,7.13
2022-10-02T21:27:36.539Z,6.10
2022-10-02T21:30:14.153Z,10.43
2022-10-02T21:32:56.774Z,6.15
2022-10-02T21:35:42.211Z,6.82
2022-10-02T21:38:46.474Z,9.23
2022-10-02T21:41:50.706Z,5.05
2022-10-02T21:44:52.202Z,7.00
2022-10-02T21:48:04.664Z,5.57
2022-10-02T21:51:27.136Z,7.60
2022-10-02T21:54:33.297Z,7.78
2022-10-02T21:57:38.687Z,5.18
2022-10-02T22:00:16.428Z,7.75
2022-10-02T22:03:18.255Z,8.45
2022-10-02T22:06:12.212Z,6.75
2022-10-02T22:09:04.247Z,8.15
2022-10-02T22:11:42.605Z,11.52
2022-10-02T22:14:14.715Z,8.55
2022-10-02T22:16:58.176Z,9.63
2022-10-02T22:19:44.231Z,4.35
2022-10-02T22:22:21.745Z,9.50
2022-10-02T22:25:12.075Z,7.95
2022-10-02T22:28:10.425Z,7.82
2022-10-02T22:30:45.661Z,7.93
2022-10-02T22:33:25.486Z,7.47
2022-10-02T22:36:16.507Z,8.32
2022-10-02T22:38:50.367Z,7.25
2022-10-02T22:41:27.659Z,8.48
2022-10-02T22:44:00.142Z,9.38
2022-10-02T22:46:44.278Z,9.63
2022-10-02T22:49:21.281Z,9.75
2022-10-02T22:52:00.395Z,8.38
2022-10-02T22:54:36.730Z,7.88
2022-10-02T22:57:15.560Z,8.48
2022-10-02T22:59:48.544Z,10.60
2022-10-02T23:02:24.534Z,12.90
2022-10-02T23:04:58.617Z,10.27
2022-10-02T23:07:32.866Z,8.43
2022-10-02T23:10:05.237Z,9.88
2022-10-02T23:12:41.970Z,10.98
2022-10-02T23:15:31.683Z,8.43
2022-10-02T23:18:05.265Z,11.45
2022-10-02T23:20:38.205Z,7.97
2022-10-02T23:23:17.112Z,12.63
2022-10-02T23:25:52.692Z,8.52
2022-10-02T23:28:26.706Z,10.98
2022-10-02T23:31:06.407Z,12.45
2022-10-02T23:33:48.389Z,11.23
2022-10-02T23:36:25.503Z,11.20
2022-10-02T23:39:04.314Z,10.70
2022-10-02T23:41:40.969Z,7.15
2022-10-02T23:44:22.048Z,9.68
2022-10-02T23:47:23.943Z,9.90
2022-10-02T23:49:54.888Z,12.75
2022-10-02T23:52:46.436Z,7.90
2022-10-02T23:55:35.391Z,9.80
2022-10-02T23:58:26.711Z,8.85
